createdAt,value
2016-09-03T00:00:51.907Z,1005.57
2016-09-03T00:01:51.927Z,1005.62
2016-09-03T00:02:51.956Z,1005.61
2016-09-03T00:03:51.980Z,1005.58
2016-09-03T00:04:52.007Z,1005.62
2016-09-03T00:05:52.033Z,1005.59
2016-09-03T00:06:52.059Z,1005.59
2016-09-03T00:07:52.085Z,1005.56
2016-09-03T00:08:52.112Z,1005.55
2016-09-03T00:09:52.139Z,1005.55
2016-09-03T00:10:52.165Z,1005.54
2016-09-03T00:11:52.190Z,1005.54
2016-09-03T00:12:52.217Z,1005.5
2016-09-03T00:13:52.243Z,1005.49
2016-09-03T00:14:52.275Z,1005.5
2016-09-03T00:15:52.295Z,1005.48
2016-09-03T00:16:52.323Z,1005.47
2016-09-03T00:17:52.356Z,1005.48
2016-09-03T00:18:52.372Z,1005.48
2016-09-03T00:19:52.399Z,1005.49
2016-09-03T00:20:52.425Z,1005.47
2016-09-03T00:21:52.452Z,1005.46
2016-09-03T00:22:52.479Z,1005.47
2016-09-03T00:23:52.503Z,1005.48
2016-09-03T00:24:52.531Z,1005.49
2016-09-03T00:25:52.555Z,1005.5
2016-09-03T00:26:52.581Z,1005.48
2016-09-03T00:27:52.609Z,1005.47
2016-09-03T00:28:52.633Z,1005.48
2016-09-03T00:29:52.659Z,1005.5
2016-09-03T00:30:52.687Z,1005.51
2016-09-03T00:31:52.712Z,1005.52
2016-09-03T00:32:52.746Z,1005.49
2016-09-03T00:33:52.763Z,1005.52
2016-09-03T00:34:52.790Z,1005.49
2016-09-03T00:35:52.815Z,1005.49
2016-09-03T00:36:52.842Z,1005.46
2016-09-03T00:37:52.867Z,1005.44
2016-09-03T00:38:52.892Z,1005.44
2016-09-03T00:39:52.920Z,1005.42
2016-09-03T00:40:52.944Z,1005.43
2016-09-03T00:41:52.972Z,1005.45
2016-09-03T00:42:52.997Z,1005.42
2016-09-03T00:43:53.021Z,1005.37
2016-09-03T00:44:53.050Z,1005.41
2016-09-03T00:45:53.075Z,1005.38
2016-09-03T00:46:53.101Z,1005.4
2016-09-03T00:47:53.126Z,1005.38
2016-09-03T00:48:53.155Z,1005.38
2016-09-03T00:49:53.179Z,1005.34
2016-09-03T00:50:53.205Z,1005.34
2016-09-03T00:51:53.229Z,1005.34
2016-09-03T00:52:53.256Z,1005.3
2016-09-03T00:53:53.281Z,1005.3
2016-09-03T00:54:53.417Z,1005.32
2016-09-03T00:55:53.437Z,1005.32
2016-09-03T00:56:53.447Z,1005.29
2016-09-03T00:57:53.479Z,1005.33
2016-09-03T00:58:53.494Z,1005.29
2016-09-03T00:59:53.486Z,1005.32
2016-09-03T01:00:53.495Z,1005.31
2016-09-03T01:01:53.564Z,1005.27
2016-09-03T01:02:53.514Z,1005.24
2016-09-03T01:03:53.572Z,1005.25
2016-09-03T01:04:53.581Z,1005.23
2016-09-03T01:05:53.591Z,1005.27
2016-09-03T01:06:53.715Z,1005.25
2016-09-03T01:07:53.715Z,1005.29
2016-09-03T01:08:53.746Z,1005.27
2016-09-03T01:09:53.756Z,1005.28
2016-09-03T01:10:53.765Z,1005.27
2016-09-03T01:11:53.773Z,1005.25
2016-09-03T01:12:53.774Z,1005.24
2016-09-03T01:13:53.796Z,1005.24
2016-09-03T01:14:53.822Z,1005.27
2016-09-03T01:15:53.849Z,1005.27
2016-09-03T01:16:53.872Z,1005.29
2016-09-03T01:17:53.899Z,1005.28
2016-09-03T01:18:53.929Z,1005.3
2016-09-03T01:19:53.950Z,1005.31
2016-09-03T01:20:53.976Z,1005.28
2016-09-03T01:21:54.002Z,1005.31
2016-09-03T01:22:54.028Z,1005.36
2016-09-03T01:23:54.054Z,1005.35
2016-09-03T01:24:54.077Z,1005.32
2016-09-03T01:25:54.104Z,1005.33
2016-09-03T01:26:54.130Z,1005.31
2016-09-03T01:27:54.155Z,1005.35
2016-09-03T01:28:54.181Z,1005.31
2016-09-03T01:29:54.207Z,1005.39
2016-09-03T01:30:54.232Z,1005.38
2016-09-03T01:31:54.280Z,1005.34
2016-09-03T01:32:54.283Z,1005.37
2016-09-03T01:33:54.309Z,1005.36
2016-09-03T01:34:54.336Z,1005.34
2016-09-03T01:35:54.361Z,1005.34
2016-09-03T01:36:54.385Z,1005.39
2016-09-03T01:37:54.413Z,1005.39
2016-09-03T01:38:54.436Z,1005.42
2016-09-03T01:39:54.463Z,1005.4
2016-09-03T01:40:54.488Z,1005.41
2016-09-03T01:41:54.514Z,1005.38
2016-09-03T01:42:54.539Z,1005.41
2016-09-03T01:43:54.565Z,1005.37
2016-09-03T01:44:54.589Z,1005.44
2016-09-03T01:45:54.615Z,1005.44
2016-09-03T01:46:54.641Z,1005.5
2016-09-03T01:47:54.667Z,1005.5
2016-09-03T01:48:54.691Z,1005.47
2016-09-03T01:49:54.716Z,1005.52
2016-09-03T01:50:54.743Z,1005.53
2016-09-03T01:51:54.768Z,1005.59
2016-09-03T01:52:54.793Z,1005.58
2016-09-03T01:53:54.819Z,1005.57
2016-09-03T01:54:54.859Z,1005.59
2016-09-03T01:55:54.871Z,1005.61
2016-09-03T01:56:54.895Z,1005.61
2016-09-03T01:57:54.921Z,1005.59
2016-09-03T01:58:54.947Z,1005.62
2016-09-03T01:59:54.972Z,1005.62
2016-09-03T02:00:55.001Z,1005.64
2016-09-03T02:01:55.025Z,1005.62
2016-09-03T02:02:55.049Z,1005.66
2016-09-03T02:03:55.073Z,1005.67
2016-09-03T02:04:55.099Z,1005.65
2016-09-03T02:05:55.123Z,1005.67
2016-09-03T02:06:55.148Z,1005.59
2016-09-03T02:07:55.174Z,1005.59
2016-09-03T02:08:55.201Z,1005.53
2016-09-03T02:09:55.225Z,1005.55
2016-09-03T02:10:55.251Z,1005.55
2016-09-03T02:11:55.275Z,1005.58
2016-09-03T02:12:55.308Z,1005.63
2016-09-03T02:13:55.327Z,1005.68
2016-09-03T02:14:55.352Z,1005.73
2016-09-03T02:15:55.378Z,1005.75
2016-09-03T02:16:55.402Z,1005.77
2016-09-03T02:17:55.427Z,1005.81
2016-09-03T02:18:55.453Z,1005.85
2016-09-03T02:19:55.479Z,1005.89
2016-09-03T02:20:55.504Z,1005.91
2016-09-03T02:21:55.531Z,1005.91
2016-09-03T02:22:55.557Z,1005.92
2016-09-03T02:23:55.580Z,1005.96
2016-09-03T02:24:55.605Z,1005.93
2016-09-03T02:25:55.637Z,1005.89
2016-09-03T02:26:55.658Z,1005.91
2016-09-03T02:27:55.681Z,1005.89
2016-09-03T02:28:55.707Z,1005.87
2016-09-03T02:29:55.732Z,1005.83
2016-09-03T02:30:55.758Z,1005.8
2016-09-03T02:31:55.783Z,1005.76
2016-09-03T02:32:55.811Z,1005.76
2016-09-03T02:33:55.833Z,1005.74
2016-09-03T02:34:55.858Z,1005.78
2016-09-03T02:35:55.883Z,1005.8
2016-09-03T02:36:55.910Z,1005.86
2016-09-03T02:37:55.934Z,1005.86
2016-09-03T02:38:55.963Z,1005.87
2016-09-03T02:39:55.986Z,1005.88
2016-09-03T02:40:56.009Z,1005.81
2016-09-03T02:41:56.034Z,1005.86
2016-09-03T02:42:56.061Z,1005.86
2016-09-03T02:43:56.087Z,1005.91
2016-09-03T02:44:56.111Z,1005.88
2016-09-03T02:45:56.135Z,1005.93
2016-09-03T02:46:56.167Z,1005.89
2016-09-03T02:47:56.188Z,1005.9
2016-09-03T02:48:56.211Z,1005.91
2016-09-03T02:49:56.243Z,1005.89
2016-09-03T02:50:56.263Z,1005.91
2016-09-03T02:51:56.287Z,1005.9
2016-09-03T02:52:56.313Z,1005.88
2016-09-03T02:53:56.339Z,1005.91
2016-09-03T02:54:56.370Z,1005.89
2016-09-03T02:55:56.396Z,1005.9
2016-09-03T02:56:56.415Z,1005.9
2016-09-03T02:57:56.439Z,1005.87
2016-09-03T02:58:56.465Z,1005.86
2016-09-03T02:59:56.488Z,1005.9
2016-09-03T03:00:56.516Z,1005.93
2016-09-03T03:01:56.541Z,1005.89
2016-09-03T03:02:56.564Z,1005.86
2016-09-03T03:03:56.590Z,1005.92
2016-09-03T03:04:56.616Z,1005.89
2016-09-03T03:05:56.641Z,1005.85
2016-09-03T03:06:56.665Z,1005.82
2016-09-03T03:07:56.691Z,1005.8
2016-09-03T03:08:56.718Z,1005.81
2016-09-03T03:09:56.741Z,1005.81
2016-09-03T03:10:56.766Z,1005.8
2016-09-03T03:11:56.792Z,1005.84
2016-09-03T03:12:56.818Z,1005.85
2016-09-03T03:13:56.842Z,1005.83
2016-09-03T03:14:56.868Z,1005.85
2016-09-03T03:15:56.893Z,1005.8
2016-09-03T03:16:56.919Z,1005.78
2016-09-03T03:17:56.943Z,1005.75
2016-09-03T03:18:56.968Z,1005.73
2016-09-03T03:19:56.995Z,1005.69
2016-09-03T03:20:57.019Z,1005.73
2016-09-03T03:21:57.044Z,1005.71
2016-09-03T03:22:57.069Z,1005.69
2016-09-03T03:23:57.094Z,1005.72
2016-09-03T03:24:57.119Z,1005.71
2016-09-03T03:25:57.144Z,1005.72
2016-09-03T03:26:57.170Z,1005.73
2016-09-03T03:27:57.197Z,1005.73
2016-09-03T03:28:57.220Z,1005.72
2016-09-03T03:29:57.245Z,1005.73
2016-09-03T03:30:57.271Z,1005.72
2016-09-03T03:31:57.295Z,1005.7
2016-09-03T03:32:57.321Z,1005.68
2016-09-03T03:33:57.346Z,1005.71
2016-09-03T03:34:57.371Z,1005.68
2016-09-03T03:35:57.397Z,1005.66
2016-09-03T03:36:57.421Z,1005.65
2016-09-03T03:37:57.446Z,1005.68
2016-09-03T03:38:57.471Z,1005.66
2016-09-03T03:39:57.496Z,1005.65
2016-09-03T03:40:57.521Z,1005.67
2016-09-03T03:41:57.546Z,1005.66
2016-09-03T03:42:57.572Z,1005.61
2016-09-03T03:43:57.597Z,1005.63
2016-09-03T03:44:57.622Z,1005.66
2016-09-03T03:45:57.647Z,1005.67
2016-09-03T03:46:57.688Z,1005.7
2016-09-03T03:47:57.697Z,1005.67
2016-09-03T03:48:57.722Z,1005.69
2016-09-03T03:49:57.749Z,1005.68
2016-09-03T03:50:57.772Z,1005.64
2016-09-03T03:51:57.797Z,1005.55
2016-09-03T03:52:57.822Z,1005.58
2016-09-03T03:53:57.848Z,1005.54
2016-09-03T03:54:57.873Z,1005.55
2016-09-03T03:55:57.898Z,1005.53
2016-09-03T03:56:57.922Z,1005.54
2016-09-03T03:57:57.948Z,1005.5
2016-09-03T03:58:57.972Z,1005.5
2016-09-03T03:59:57.999Z,1005.5
2016-09-03T04:00:58.024Z,1005.5
2016-09-03T04:01:58.049Z,1005.49
2016-09-03T04:02:58.073Z,1005.57
2016-09-03T04:03:58.099Z,1005.54
2016-09-03T04:04:58.124Z,1005.57
2016-09-03T04:05:58.148Z,1005.58
2016-09-03T04:06:58.173Z,1005.59
2016-09-03T04:07:58.199Z,1005.55
2016-09-03T04:08:58.223Z,1005.58
2016-09-03T04:09:58.249Z,1005.55
2016-09-03T04:10:58.273Z,1005.57
2016-09-03T04:11:58.298Z,1005.49
2016-09-03T04:12:58.331Z,1005.5
2016-09-03T04:13:58.349Z,1005.47
2016-09-03T04:14:58.374Z,1005.5
2016-09-03T04:15:58.397Z,1005.51
2016-09-03T04:16:58.422Z,1005.51
2016-09-03T04:17:58.450Z,1005.52
2016-09-03T04:18:58.473Z,1005.58
2016-09-03T04:19:58.497Z,1005.55
2016-09-03T04:20:58.521Z,1005.56
2016-09-03T04:21:58.547Z,1005.6
2016-09-03T04:22:58.573Z,1005.62
2016-09-03T04:23:58.598Z,1005.56
2016-09-03T04:24:58.620Z,1005.59
2016-09-03T04:25:58.650Z,1005.57
2016-09-03T04:26:58.671Z,1005.55
2016-09-03T04:27:58.697Z,1005.59
2016-09-03T04:28:58.721Z,1005.58
2016-09-03T04:29:58.749Z,1005.53
2016-09-03T04:30:58.771Z,1005.55
2016-09-03T04:31:58.797Z,1005.56
2016-09-03T04:32:58.821Z,1005.53
2016-09-03T04:33:58.847Z,1005.55
2016-09-03T04:34:58.871Z,1005.52
2016-09-03T04:35:58.897Z,1005.54
2016-09-03T04:36:58.921Z,1005.59
2016-09-03T04:37:58.946Z,1005.56
2016-09-03T04:38:58.970Z,1005.61
2016-09-03T04:39:58.995Z,1005.62
2016-09-03T04:40:59.021Z,1005.65
2016-09-03T04:41:59.045Z,1005.66
2016-09-03T04:42:59.071Z,1005.63
2016-09-03T04:43:59.096Z,1005.64
2016-09-03T04:44:59.119Z,1005.65
2016-09-03T04:45:59.145Z,1005.69
2016-09-03T04:46:59.170Z,1005.73
2016-09-03T04:47:59.194Z,1005.69
2016-09-03T04:48:59.218Z,1005.69
2016-09-03T04:49:59.247Z,1005.7
2016-09-03T04:50:59.268Z,1005.69
2016-09-03T04:51:59.295Z,1005.7
2016-09-03T04:52:59.326Z,1005.69
2016-09-03T04:53:59.343Z,1005.68
2016-09-03T04:54:59.370Z,1005.66
2016-09-03T04:55:59.394Z,1005.65
2016-09-03T04:56:59.421Z,1005.63
2016-09-03T04:57:59.442Z,1005.65
2016-09-03T04:58:59.467Z,1005.69
2016-09-03T04:59:59.495Z,1005.71
2016-09-03T05:00:59.517Z,1005.74
2016-09-03T05:01:59.541Z,1005.78
2016-09-03T05:02:59.570Z,1005.8
2016-09-03T05:03:59.598Z,1005.82
2016-09-03T05:04:59.616Z,1005.81
2016-09-03T05:05:59.642Z,1005.8
2016-09-03T05:06:59.667Z,1005.78
2016-09-03T05:07:59.691Z,1005.8
2016-09-03T05:08:59.716Z,1005.74
2016-09-03T05:09:59.739Z,1005.74
2016-09-03T05:10:59.767Z,1005.68
2016-09-03T05:11:59.790Z,1005.67
2016-09-03T05:12:59.815Z,1005.75
2016-09-03T05:13:59.840Z,1005.74
2016-09-03T05:14:59.865Z,1005.81
2016-09-03T05:15:59.888Z,1005.83
2016-09-03T05:16:59.914Z,1005.82
2016-09-03T05:17:59.938Z,1005.88
2016-09-03T05:18:59.963Z,1005.89
2016-09-03T05:19:59.988Z,1005.91
2016-09-03T05:21:00.024Z,1005.9
2016-09-03T05:22:00.038Z,1005.95
2016-09-03T05:23:00.071Z,1005.96
2016-09-03T05:24:00.087Z,1005.99
2016-09-03T05:25:00.112Z,1006.04
2016-09-03T05:26:00.137Z,1006.04
2016-09-03T05:27:00.167Z,1006.05
2016-09-03T05:28:00.191Z,1006.09
2016-09-03T05:29:00.210Z,1006.05
2016-09-03T05:30:00.237Z,1006.06
2016-09-03T05:31:00.260Z,1006.05
2016-09-03T05:32:00.289Z,1006.07
2016-09-03T05:33:00.310Z,1006.03
2016-09-03T05:34:00.334Z,1006.08
2016-09-03T05:35:00.360Z,1006.04
2016-09-03T05:36:00.393Z,1006.05
2016-09-03T05:37:00.408Z,1006.09
2016-09-03T05:38:00.442Z,1006.07
2016-09-03T05:39:00.509Z,1006.07
2016-09-03T05:40:00.490Z,1006.08
2016-09-03T05:41:00.508Z,1006.08
2016-09-03T05:42:00.532Z,1006.05
2016-09-03T05:43:00.558Z,1006.06
2016-09-03T05:44:00.582Z,1006.07
2016-09-03T05:45:00.608Z,1006.07
2016-09-03T05:46:00.633Z,1006.07
2016-09-03T05:47:00.656Z,1006.13
2016-09-03T05:48:00.692Z,1006.12
2016-09-03T05:49:00.708Z,1006.1
2016-09-03T05:50:00.732Z,1006.11
2016-09-03T05:51:00.755Z,1006.08
2016-09-03T05:52:00.786Z,1006.11
2016-09-03T05:53:00.805Z,1006.13
2016-09-03T05:54:00.833Z,1006.18
2016-09-03T05:55:00.853Z,1006.16
2016-09-03T05:56:00.882Z,1006.19
2016-09-03T05:57:00.905Z,1006.16
2016-09-03T05:58:00.929Z,1006.18
2016-09-03T05:59:00.953Z,1006.16
2016-09-03T06:00:00.985Z,1006.18
2016-09-03T06:01:01.004Z,1006.2
2016-09-03T06:02:01.034Z,1006.2
2016-09-03T06:03:01.052Z,1006.18
2016-09-03T06:04:01.077Z,1006.18
2016-09-03T06:05:01.102Z,1006.19
2016-09-03T06:06:01.129Z,1006.15
2016-09-03T06:07:01.151Z,1006.21
2016-09-03T06:08:01.178Z,1006.19
2016-09-03T06:09:01.201Z,1006.22
2016-09-03T06:10:01.228Z,1006.24
2016-09-03T06:11:01.251Z,1006.25
2016-09-03T06:12:01.274Z,1006.28
2016-09-03T06:13:01.305Z,1006.32
2016-09-03T06:14:01.330Z,1006.28
2016-09-03T06:15:01.349Z,1006.3
2016-09-03T06:16:01.375Z,1006.32
2016-09-03T06:17:01.398Z,1006.31
2016-09-03T06:18:01.423Z,1006.34
2016-09-03T06:19:01.449Z,1006.32
2016-09-03T06:20:01.474Z,1006.28
2016-09-03T06:21:01.497Z,1006.27
2016-09-03T06:22:01.523Z,1006.25
2016-09-03T06:23:01.549Z,1006.27
2016-09-03T06:24:01.572Z,1006.28
2016-09-03T06:25:01.597Z,1006.31
2016-09-03T06:26:01.622Z,1006.36
2016-09-03T06:27:01.647Z,1006.4
2016-09-03T06:28:01.672Z,1006.33
2016-09-03T06:29:01.696Z,1006.36
2016-09-03T06:30:01.722Z,1006.33
2016-09-03T06:31:01.747Z,1006.37
2016-09-03T06:32:01.771Z,1006.35
2016-09-03T06:33:01.797Z,1006.4
2016-09-03T06:34:01.821Z,1006.38
2016-09-03T06:35:01.845Z,1006.39
2016-09-03T06:36:01.869Z,1006.4
2016-09-03T06:37:01.902Z,1006.41
2016-09-03T06:38:01.920Z,1006.39
2016-09-03T06:39:01.995Z,1006.4
2016-09-03T06:40:01.971Z,1006.39
2016-09-03T06:41:01.994Z,1006.4
2016-09-03T06:42:02.020Z,1006.4
2016-09-03T06:43:02.047Z,1006.4
2016-09-03T06:44:02.071Z,1006.45
2016-09-03T06:45:02.095Z,1006.42
2016-09-03T06:46:02.119Z,1006.41
2016-09-03T06:47:02.143Z,1006.44
2016-09-03T06:48:02.169Z,1006.45
2016-09-03T06:49:02.195Z,1006.44
2016-09-03T06:50:02.220Z,1006.42
2016-09-03T06:51:02.246Z,1006.44
2016-09-03T06:52:02.274Z,1006.38
2016-09-03T06:53:02.294Z,1006.41
2016-09-03T06:54:02.318Z,1006.41
2016-09-03T06:55:02.345Z,1006.46
2016-09-03T06:56:02.370Z,1006.43
2016-09-03T06:57:02.400Z,1006.41
2016-09-03T06:58:02.418Z,1006.43
2016-09-03T06:59:02.444Z,1006.41
2016-09-03T07:00:02.469Z,1006.44
2016-09-03T07:01:02.494Z,1006.48
2016-09-03T07:02:02.518Z,1006.48
2016-09-03T07:03:02.545Z,1006.53
2016-09-03T07:04:02.569Z,1006.53
2016-09-03T07:05:02.593Z,1006.58
2016-09-03T07:06:02.619Z,1006.54
2016-09-03T07:07:02.644Z,1006.64
2016-09-03T07:08:02.668Z,1006.6
2016-09-03T07:09:02.693Z,1006.65
2016-09-03T07:10:02.719Z,1006.64
2016-09-03T07:11:02.744Z,1006.68
2016-09-03T07:12:02.769Z,1006.62
2016-09-03T07:13:02.795Z,1006.63
2016-09-03T07:14:02.820Z,1006.63
2016-09-03T07:15:02.845Z,1006.69
2016-09-03T07:16:02.869Z,1006.64
2016-09-03T07:17:02.896Z,1006.66
2016-09-03T07:18:02.920Z,1006.67
2016-09-03T07:19:02.945Z,1006.68
2016-09-03T07:20:02.971Z,1006.67
2016-09-03T07:21:02.998Z,1006.67
2016-09-03T07:22:03.020Z,1006.64
2016-09-03T07:23:03.047Z,1006.67
2016-09-03T07:24:03.070Z,1006.69
2016-09-03T07:25:03.096Z,1006.66
2016-09-03T07:26:03.121Z,1006.65
2016-09-03T07:27:03.147Z,1006.65
2016-09-03T07:28:03.172Z,1006.66
2016-09-03T07:29:03.197Z,1006.62
2016-09-03T07:30:03.222Z,1006.66
2016-09-03T07:31:03.249Z,1006.63
2016-09-03T07:32:03.274Z,1006.62
2016-09-03T07:33:03.300Z,1006.63
2016-09-03T07:34:03.327Z,1006.66
2016-09-03T07:35:03.350Z,1006.61
2016-09-03T07:36:03.375Z,1006.64
2016-09-03T07:37:03.400Z,1006.62
2016-09-03T07:38:03.425Z,1006.62
2016-09-03T07:39:03.452Z,1006.66
2016-09-03T07:40:03.477Z,1006.68
2016-09-03T07:41:03.507Z,1006.62
2016-09-03T07:42:03.527Z,1006.67
2016-09-03T07:43:03.553Z,1006.66
2016-09-03T07:44:03.578Z,1006.66
2016-09-03T07:45:03.603Z,1006.65
2016-09-03T07:46:03.629Z,1006.69
2016-09-03T07:47:03.654Z,1006.71
2016-09-03T07:48:03.681Z,1006.7
2016-09-03T07:49:03.706Z,1006.73
2016-09-03T07:50:03.731Z,1006.75
2016-09-03T07:51:03.763Z,1006.72
2016-09-03T07:52:03.782Z,1006.72
2016-09-03T07:53:03.807Z,1006.69
2016-09-03T07:54:03.833Z,1006.7
2016-09-03T07:55:03.861Z,1006.68
2016-09-03T07:56:03.885Z,1006.66
2016-09-03T07:57:03.911Z,1006.68
2016-09-03T07:58:03.936Z,1006.66
2016-09-03T07:59:04.082Z,1006.69
2016-09-03T08:00:03.988Z,1006.64
2016-09-03T08:01:04.013Z,1006.63
2016-09-03T08:02:04.040Z,1006.63
2016-09-03T08:03:04.066Z,1006.63
2016-09-03T08:04:04.091Z,1006.66
2016-09-03T08:05:04.117Z,1006.65
2016-09-03T08:06:04.143Z,1006.69
2016-09-03T08:07:04.168Z,1006.64
2016-09-03T08:08:04.195Z,1006.63
2016-09-03T08:09:04.221Z,1006.63
2016-09-03T08:10:04.245Z,1006.66
2016-09-03T08:11:04.273Z,1006.64
2016-09-03T08:12:04.297Z,1006.63
2016-09-03T08:13:04.325Z,1006.62
2016-09-03T08:14:04.356Z,1006.65
2016-09-03T08:15:04.375Z,1006.63
2016-09-03T08:16:04.403Z,1006.6
2016-09-03T08:17:04.429Z,1006.61
2016-09-03T08:18:04.455Z,1006.61
2016-09-03T08:19:04.482Z,1006.58
2016-09-03T08:20:04.508Z,1006.58
2016-09-03T08:21:04.532Z,1006.6
2016-09-03T08:22:04.559Z,1006.61
2016-09-03T08:23:04.586Z,1006.58
2016-09-03T08:24:04.614Z,1006.63
2016-09-03T08:25:04.637Z,1006.6
2016-09-03T08:26:04.665Z,1006.62
2016-09-03T08:27:04.692Z,1006.6
2016-09-03T08:28:04.717Z,1006.64
2016-09-03T08:29:04.742Z,1006.64
2016-09-03T08:30:04.772Z,1006.68
2016-09-03T08:31:04.797Z,1006.69
2016-09-03T08:32:04.823Z,1006.7
2016-09-03T08:33:04.849Z,1006.68
2016-09-03T08:34:04.875Z,1006.66
2016-09-03T08:35:04.905Z,1006.67
2016-09-03T08:36:04.929Z,1006.65
2016-09-03T08:37:04.956Z,1006.62
2016-09-03T08:38:04.983Z,1006.61
2016-09-03T08:39:05.058Z,1006.59
2016-09-03T08:40:05.037Z,1006.59
2016-09-03T08:41:05.062Z,1006.57
2016-09-03T08:42:05.090Z,1006.56
2016-09-03T08:43:05.116Z,1006.57
2016-09-03T08:44:05.147Z,1006.56
2016-09-03T08:45:05.170Z,1006.52
2016-09-03T08:46:05.197Z,1006.51
2016-09-03T08:47:05.229Z,1006.6
2016-09-03T08:48:05.250Z,1006.57
2016-09-03T08:49:05.277Z,1006.49
2016-09-03T08:50:05.305Z,1006.5
2016-09-03T08:51:05.330Z,1006.48
2016-09-03T08:52:05.357Z,1006.48
2016-09-03T08:53:05.392Z,1006.45
2016-09-03T08:54:05.411Z,1006.46
2016-09-03T08:55:05.440Z,1006.5
2016-09-03T08:56:05.467Z,1006.47
2016-09-03T08:57:05.493Z,1006.43
2016-09-03T08:58:05.518Z,1006.43
2016-09-03T08:59:05.546Z,1006.42
2016-09-03T09:00:05.576Z,1006.4
2016-09-03T09:01:05.600Z,1006.4
2016-09-03T09:02:05.628Z,1006.42
2016-09-03T09:03:05.656Z,1006.43
2016-09-03T09:04:05.683Z,1006.45
2016-09-03T09:05:05.713Z,1006.41
2016-09-03T09:06:05.736Z,1006.43
2016-09-03T09:07:05.764Z,1006.42
2016-09-03T09:08:05.792Z,1006.38
2016-09-03T09:09:05.821Z,1006.39
2016-09-03T09:10:05.847Z,1006.36
2016-09-03T09:11:05.874Z,1006.35
2016-09-03T09:12:05.901Z,1006.29
2016-09-03T09:13:05.935Z,1006.29
2016-09-03T09:14:05.962Z,1006.31
2016-09-03T09:15:05.984Z,1006.32
2016-09-03T09:16:06.011Z,1006.31
2016-09-03T09:17:06.038Z,1006.28
2016-09-03T09:18:06.086Z,1006.27
2016-09-03T09:19:06.135Z,1006.25
2016-09-03T09:20:06.121Z,1006.22
2016-09-03T09:21:06.148Z,1006.26
2016-09-03T09:22:06.179Z,1006.21
2016-09-03T09:23:06.203Z,1006.28
2016-09-03T09:24:06.231Z,1006.28
2016-09-03T09:25:06.260Z,1006.22
2016-09-03T09:26:06.288Z,1006.25
2016-09-03T09:27:06.315Z,1006.2
2016-09-03T09:28:06.343Z,1006.17
2016-09-03T09:29:06.372Z,1006.18
2016-09-03T09:30:06.401Z,1006.14
2016-09-03T09:31:06.426Z,1006.18
2016-09-03T09:32:06.455Z,1006.17
2016-09-03T09:33:06.484Z,1006.17
2016-09-03T09:34:06.510Z,1006.13
2016-09-03T09:35:06.538Z,1006.18
2016-09-03T09:36:06.567Z,1006.17
2016-09-03T09:37:06.594Z,1006.18
2016-09-03T09:38:06.623Z,1006.16
2016-09-03T09:39:06.657Z,1006.15
2016-09-03T09:40:06.678Z,1006.14
2016-09-03T09:41:06.707Z,1006.13
2016-09-03T09:42:06.742Z,1006.15
2016-09-03T09:43:06.764Z,1006.15
2016-09-03T09:44:06.793Z,1006.14
2016-09-03T09:45:06.818Z,1006.15
2016-09-03T09:46:06.847Z,1006.09
2016-09-03T09:47:06.875Z,1006.07
2016-09-03T09:48:06.917Z,1006.06
2016-09-03T09:49:06.932Z,1005.98
2016-09-03T09:50:06.961Z,1005.96
2016-09-03T09:51:06.989Z,1005.92
2016-09-03T09:52:07.115Z,1005.94
2016-09-03T09:53:07.046Z,1005.95
2016-09-03T09:54:07.075Z,1006.02
2016-09-03T09:55:07.105Z,1005.95
2016-09-03T09:56:07.132Z,1005.92
2016-09-03T09:57:07.162Z,1005.91
2016-09-03T09:58:07.189Z,1005.88
2016-09-03T09:59:07.218Z,1005.85
2016-09-03T10:00:07.247Z,1005.83
2016-09-03T10:01:07.276Z,1005.88
2016-09-03T10:02:07.305Z,1005.83
2016-09-03T10:03:07.332Z,1005.84
2016-09-03T10:04:07.362Z,1005.82
2016-09-03T10:05:07.390Z,1005.81
2016-09-03T10:06:07.419Z,1005.8
2016-09-03T10:07:07.454Z,1005.78
2016-09-03T10:08:07.477Z,1005.76
2016-09-03T10:09:07.505Z,1005.78
2016-09-03T10:10:07.535Z,1005.73
2016-09-03T10:11:07.564Z,1005.71
2016-09-03T10:12:07.595Z,1005.73
2016-09-03T10:13:07.622Z,1005.74
2016-09-03T10:14:07.649Z,1005.71
2016-09-03T10:15:07.730Z,1005.74
2016-09-03T10:16:07.710Z,1005.68
2016-09-03T10:17:07.740Z,1005.68
2016-09-03T10:18:07.767Z,1005.65
2016-09-03T10:19:07.796Z,1005.7
2016-09-03T10:20:07.826Z,1005.67
2016-09-03T10:21:07.857Z,1005.65
2016-09-03T10:22:07.981Z,1005.6
2016-09-03T10:23:07.915Z,1005.61
2016-09-03T10:24:07.943Z,1005.6
2016-09-03T10:25:07.972Z,1005.59
2016-09-03T10:26:08.002Z,1005.63
2016-09-03T10:27:08.031Z,1005.66
2016-09-03T10:28:08.061Z,1005.59
2016-09-03T10:29:08.090Z,1005.58
2016-09-03T10:30:08.121Z,1005.59
2016-09-03T10:31:08.150Z,1005.65
2016-09-03T10:32:08.180Z,1005.62
2016-09-03T10:33:08.210Z,1005.52
2016-09-03T10:34:08.244Z,1005.57
2016-09-03T10:35:08.269Z,1005.56
2016-09-03T10:36:08.298Z,1005.56
2016-09-03T10:37:08.328Z,1005.57
2016-09-03T10:38:08.358Z,1005.57
2016-09-03T10:39:08.388Z,1005.54
2016-09-03T10:40:08.417Z,1005.49
2016-09-03T10:41:08.446Z,1005.5
2016-09-03T10:42:08.477Z,1005.51
2016-09-03T10:43:08.507Z,1005.5
2016-09-03T10:44:08.537Z,1005.52
2016-09-03T10:45:08.568Z,1005.45
2016-09-03T10:46:08.597Z,1005.43
2016-09-03T10:47:08.633Z,1005.51
2016-09-03T10:48:08.657Z,1005.52
2016-09-03T10:49:08.687Z,1005.54
2016-09-03T10:50:08.718Z,1005.43
2016-09-03T10:51:08.746Z,1005.57
2016-09-03T10:52:08.778Z,1005.51
2016-09-03T10:53:08.815Z,1005.49
2016-09-03T10:54:08.838Z,1005.42
2016-09-03T10:55:08.870Z,1005.41
2016-09-03T10:56:08.898Z,1005.43
2016-09-03T10:57:08.929Z,1005.43
2016-09-03T10:58:08.960Z,1005.4
2016-09-03T10:59:08.989Z,1005.39
2016-09-03T11:00:09.019Z,1005.46
2016-09-03T11:01:09.050Z,1005.5
2016-09-03T11:02:09.079Z,1005.47
2016-09-03T11:03:09.109Z,1005.42
2016-09-03T11:04:09.141Z,1005.41
2016-09-03T11:05:09.171Z,1005.47
2016-09-03T11:06:09.202Z,1005.44
2016-09-03T11:07:09.231Z,1005.5
2016-09-03T11:08:09.263Z,1005.38
2016-09-03T11:09:09.293Z,1005.37
2016-09-03T11:10:09.325Z,1005.37
2016-09-03T11:11:09.357Z,1005.5
2016-09-03T11:12:09.385Z,1005.49
2016-09-03T11:13:09.414Z,1005.43
2016-09-03T11:14:09.447Z,1005.48
2016-09-03T11:15:09.477Z,1005.47
2016-09-03T11:16:09.508Z,1005.41
2016-09-03T11:17:09.537Z,1005.44
2016-09-03T11:18:09.569Z,1005.46
2016-09-03T11:19:09.603Z,1005.37
2016-09-03T11:20:09.630Z,1005.34
2016-09-03T11:21:09.668Z,1005.32
2016-09-03T11:22:09.694Z,1005.39
2016-09-03T11:23:09.724Z,1005.36
2016-09-03T11:24:09.753Z,1005.4
2016-09-03T11:25:09.785Z,1005.37
2016-09-03T11:26:09.816Z,1005.4
2016-09-03T11:27:09.847Z,1005.35
2016-09-03T11:28:09.878Z,1005.38
2016-09-03T11:29:09.909Z,1005.37
2016-09-03T11:30:09.941Z,1005.38
2016-09-03T11:31:09.972Z,1005.36
2016-09-03T11:32:10.002Z,1005.39
2016-09-03T11:33:10.034Z,1005.38
2016-09-03T11:34:10.066Z,1005.4
2016-09-03T11:35:10.098Z,1005.39
2016-09-03T11:36:10.128Z,1005.39
2016-09-03T11:37:10.159Z,1005.34
2016-09-03T11:38:10.189Z,1005.36
2016-09-03T11:39:10.220Z,1005.35
2016-09-03T11:40:10.253Z,1005.37
2016-09-03T11:41:10.285Z,1005.26
2016-09-03T11:42:10.315Z,1005.29
2016-09-03T11:43:10.346Z,1005.29
2016-09-03T11:44:10.378Z,1005.29
2016-09-03T11:45:10.409Z,1005.32
2016-09-03T11:46:10.440Z,1005.34
2016-09-03T11:47:10.474Z,1005.35
2016-09-03T11:48:10.504Z,1005.32
2016-09-03T11:49:10.536Z,1005.27
2016-09-03T11:50:10.568Z,1005.27
2016-09-03T11:51:10.599Z,1005.27
2016-09-03T11:52:10.632Z,1005.26
2016-09-03T11:53:10.662Z,1005.26
2016-09-03T11:54:10.694Z,1005.28
2016-09-03T11:55:10.728Z,1005.27
2016-09-03T11:56:10.758Z,1005.23
2016-09-03T11:57:10.793Z,1005.21
2016-09-03T11:58:10.820Z,1005.18
2016-09-03T11:59:10.854Z,1005.23
2016-09-03T12:00:10.884Z,1005.18
2016-09-03T12:01:10.916Z,1005.19
2016-09-03T12:02:10.948Z,1005.2
2016-09-03T12:03:10.981Z,1005.19
2016-09-03T12:04:11.013Z,1005.13
2016-09-03T12:05:11.044Z,1005.13
2016-09-03T12:06:11.077Z,1005.17
2016-09-03T12:07:11.110Z,1005.15
2016-09-03T12:08:11.140Z,1005.18
2016-09-03T12:09:11.173Z,1005.16